sensor_id;sensor_type;location;lat;lon;timestamp;pressure;altitude;pressure_sealevel;temperature;humidity
41690;BME280;27372;42.658;23.256;2023-07-24T00:01:58;94064.78;;;20.58;60.15
41690;BME280;27372;42.658;23.256;2023-07-24T00:04:35;94071.97;;;20.77;58.81
41690;BME280;27372;42.658;23.256;2023-07-24T00:07:01;94064.19;;;20.81;57.30
41690;BME280;27372;42.658;23.256;2023-07-24T00:09:29;94065.94;;;20.52;52.96
41690;BME280;27372;42.658;23.256;2023-07-24T00:11:54;94072.94;;;20.48;50.69
41690;BME280;27372;42.658;23.256;2023-07-24T00:14:22;94067.84;;;20.66;50.01
41690;BME280;27372;42.658;23.256;2023-07-24T00:16:51;94067.53;;;20.53;50.40
41690;BME280;27372;42.658;23.256;2023-07-24T00:19:19;94063.31;;;20.85;50.37
41690;BME280;27372;42.658;23.256;2023-07-24T00:21:45;94077.81;;;20.93;50.62
41690;BME280;27372;42.658;23.256;2023-07-24T00:24:11;94066.56;;;20.96;50.57
41690;BME280;27372;42.658;23.256;2023-07-24T00:26:36;94059.78;;;20.71;51.68
41690;BME280;27372;42.658;23.256;2023-07-24T00:29:02;94068.72;;;20.61;55.60
41690;BME280;27372;42.658;23.256;2023-07-24T00:31:28;94074.69;;;20.72;57.20
41690;BME280;27372;42.658;23.256;2023-07-24T00:33:54;94060.63;;;20.85;58.06
41690;BME280;27372;42.658;23.256;2023-07-24T00:36:19;94060.31;;;20.54;59.66
41690;BME280;27372;42.658;23.256;2023-07-24T00:38:54;94067.31;;;20.83;57.47
41690;BME280;27372;42.658;23.256;2023-07-24T00:41:22;94058.44;;;20.87;55.26
41690;BME280;27372;42.658;23.256;2023-07-24T00:43:50;94057.78;;;20.96;54.55
41690;BME280;27372;42.658;23.256;2023-07-24T00:46:22;94051.63;;;20.62;54.61
41690;BME280;27372;42.658;23.256;2023-07-24T00:48:54;94067.53;;;20.86;55.06
41690;BME280;27372;42.658;23.256;2023-07-24T00:51:23;94059.16;;;20.60;54.65
41690;BME280;27372;42.658;23.256;2023-07-24T00:53:51;94059.81;;;20.52;55.28
41690;BME280;27372;42.658;23.256;2023-07-24T00:56:17;94066.50;;;20.68;52.98
41690;BME280;27372;42.658;23.256;2023-07-24T00:58:47;94060.53;;;20.90;53.24
41690;BME280;27372;42.658;23.256;2023-07-24T01:01:14;94057.28;;;20.93;51.52
41690;BME280;27372;42.658;23.256;2023-07-24T01:03:41;94047.56;;;20.98;51.30
41690;BME280;27372;42.658;23.256;2023-07-24T01:06:09;94051.44;;;20.91;51.72
41690;BME280;27372;42.658;23.256;2023-07-24T01:08:40;94046.28;;;20.62;53.73
41690;BME280;27372;42.658;23.256;2023-07-24T01:11:14;94049.47;;;20.97;53.82
41690;BME280;27372;42.658;23.256;2023-07-24T01:14:00;94040.00;;;21.05;52.73
41690;BME280;27372;42.658;23.256;2023-07-24T01:16:57;94055.50;;;21.17;52.39
41690;BME280;27372;42.658;23.256;2023-07-24T01:19:40;94040.19;;;21.22;52.31
41690;BME280;27372;42.658;23.256;2023-07-24T01:27:27;94040.25;;;20.89;54.85
41690;BME280;27372;42.658;23.256;2023-07-24T01:29:55;94031.69;;;20.59;56.29
41690;BME280;27372;42.658;23.256;2023-07-24T01:32:24;94036.34;;;20.68;56.30
41690;BME280;27372;42.658;23.256;2023-07-24T01:34:59;94039.50;;;21.03;54.52
41690;BME280;27372;42.658;23.256;2023-07-24T01:37:27;94054.59;;;20.60;57.69
41690;BME280;27372;42.658;23.256;2023-07-24T01:39:55;94047.81;;;20.16;57.86
41690;BME280;27372;42.658;23.256;2023-07-24T01:42:22;94060.06;;;20.36;55.99
41690;BME280;27372;42.658;23.256;2023-07-24T01:44:55;94050.47;;;20.35;57.36
41690;BME280;27372;42.658;23.256;2023-07-24T01:47:21;94057.25;;;20.27;57.78
41690;BME280;27372;42.658;23.256;2023-07-24T01:49:47;94061.31;;;19.86;59.87
41690;BME280;27372;42.658;23.256;2023-07-24T01:52:18;94051.19;;;19.83;59.91
41690;BME280;27372;42.658;23.256;2023-07-24T01:54:43;94060.03;;;19.79;61.18
41690;BME280;27372;42.658;23.256;2023-07-24T01:57:09;94051.97;;;19.65;61.44
41690;BME280;27372;42.658;23.256;2023-07-24T01:59:35;94048.00;;;19.62;60.31
41690;BME280;27372;42.658;23.256;2023-07-24T02:02:00;94050.72;;;20.00;59.33
41690;BME280;27372;42.658;23.256;2023-07-24T02:04:32;94046.75;;;20.17;59.34
41690;BME280;27372;42.658;23.256;2023-07-24T02:06:57;94047.78;;;20.54;58.41
41690;BME280;27372;42.658;23.256;2023-07-24T02:09:25;94039.16;;;20.57;59.71
41690;BME280;27372;42.658;23.256;2023-07-24T02:11:51;94050.13;;;20.75;60.74
41690;BME280;27372;42.658;23.256;2023-07-24T02:14:17;94052.00;;;20.88;60.25
41690;BME280;27372;42.658;23.256;2023-07-24T02:16:43;94060.13;;;20.83;59.67
41690;BME280;27372;42.658;23.256;2023-07-24T02:19:08;94053.53;;;20.61;60.37
41690;BME280;27372;42.658;23.256;2023-07-24T02:21:36;94052.72;;;20.61;59.97
41690;BME280;27372;42.658;23.256;2023-07-24T02:24:02;94049.16;;;20.66;60.23
41690;BME280;27372;42.658;23.256;2023-07-24T02:26:27;94032.88;;;20.34;60.84
41690;BME280;27372;42.658;23.256;2023-07-24T02:28:52;94033.19;;;20.32;59.67
41690;BME280;27372;42.658;23.256;2023-07-24T02:31:19;94029.31;;;20.25;60.44
41690;BME280;27372;42.658;23.256;2023-07-24T02:33:44;94032.53;;;20.41;60.46
41690;BME280;27372;42.658;23.256;2023-07-24T02:36:09;94034.91;;;20.56;60.53
41690;BME280;27372;42.658;23.256;2023-07-24T02:38:41;94036.72;;;20.61;60.03
41690;BME280;27372;42.658;23.256;2023-07-24T02:41:09;94049.84;;;20.24;60.89
41690;BME280;27372;42.658;23.256;2023-07-24T02:43:40;94048.00;;;20.39;60.44
41690;BME280;27372;42.658;23.256;2023-07-24T02:46:06;94044.94;;;20.31;61.16
41690;BME280;27372;42.658;23.256;2023-07-24T02:48:33;94039.81;;;20.16;62.13
41690;BME280;27372;42.658;23.256;2023-07-24T02:50:58;94035.44;;;19.87;63.26
41690;BME280;27372;42.658;23.256;2023-07-24T02:53:31;94040.03;;;19.81;62.79
41690;BME280;27372;42.658;23.256;2023-07-24T02:56:03;94040.50;;;19.89;62.21
41690;BME280;27372;42.658;23.256;2023-07-24T02:58:32;94037.75;;;20.13;61.10
41690;BME280;27372;42.658;23.256;2023-07-24T03:01:10;94028.94;;;20.31;61.99
41690;BME280;27372;42.658;23.256;2023-07-24T03:03:43;94042.59;;;20.44;63.05
41690;BME280;27372;42.658;23.256;2023-07-24T03:06:17;94031.03;;;20.35;62.88
41690;BME280;27372;42.658;23.256;2023-07-24T03:08:44;94033.16;;;19.56;63.55
41690;BME280;27372;42.658;23.256;2023-07-24T03:11:16;94035.13;;;19.26;64.21
41690;BME280;27372;42.658;23.256;2023-07-24T03:13:44;94028.94;;;19.31;62.97
41690;BME280;27372;42.658;23.256;2023-07-24T03:16:12;94026.75;;;19.57;62.48
41690;BME280;27372;42.658;23.256;2023-07-24T03:18:38;94026.06;;;19.90;61.27
41690;BME280;27372;42.658;23.256;2023-07-24T03:21:06;94032.91;;;20.15;60.62
41690;BME280;27372;42.658;23.256;2023-07-24T03:23:41;94042.13;;;19.84;63.24
41690;BME280;27372;42.658;23.256;2023-07-24T03:26:09;94047.53;;;19.36;65.04
41690;BME280;27372;42.658;23.256;2023-07-24T03:28:34;94036.63;;;19.76;62.71
41690;BME280;27372;42.658;23.256;2023-07-24T03:31:02;94046.94;;;19.39;65.03
41690;BME280;27372;42.658;23.256;2023-07-24T03:33:27;94051.50;;;19.38;64.94
41690;BME280;27372;42.658;23.256;2023-07-24T03:35:53;94043.22;;;19.40;63.50
41690;BME280;27372;42.658;23.256;2023-07-24T03:38:18;94045.47;;;19.03;64.89
41690;BME280;27372;42.658;23.256;2023-07-24T03:40:47;94042.88;;;19.22;63.64
41690;BME280;27372;42.658;23.256;2023-07-24T03:43:15;94040.50;;;19.45;63.76
41690;BME280;27372;42.658;23.256;2023-07-24T03:45:40;94030.50;;;19.56;63.52
41690;BME280;27372;42.658;23.256;2023-07-24T03:48:07;94027.06;;;19.75;63.93
41690;BME280;27372;42.658;23.256;2023-07-24T03:50:35;94025.44;;;19.98;63.53
41690;BME280;27372;42.658;23.256;2023-07-24T03:53:03;94031.97;;;20.25;63.98
41690;BME280;27372;42.658;23.256;2023-07-24T03:55:28;94033.47;;;20.31;63.83
41690;BME280;27372;42.658;23.256;2023-07-24T03:57:56;94042.69;;;20.39;63.22
41690;BME280;27372;42.658;23.256;2023-07-24T04:00:22;94036.13;;;20.31;63.14
41690;BME280;27372;42.658;23.256;2023-07-24T04:02:47;94035.81;;;20.19;60.22
41690;BME280;27372;42.658;23.256;2023-07-24T04:05:15;94044.31;;;20.01;58.42
41690;BME280;27372;42.658;23.256;2023-07-24T04:07:41;94052.56;;;20.00;61.95
41690;BME280;27372;42.658;23.256;2023-07-24T04:10:07;94051.78;;;19.99;63.23
41690;BME280;27372;42.658;23.256;2023-07-24T04:12:32;94057.91;;;20.19;62.81
41690;BME280;27372;42.658;23.256;2023-07-24T04:14:57;94062.06;;;20.25;62.72
41690;BME280;27372;42.658;23.256;2023-07-24T04:17:23;94064.03;;;20.20;63.47
41690;BME280;27372;42.658;23.256;2023-07-24T04:19:50;94063.59;;;20.12;67.71
41690;BME280;27372;42.658;23.256;2023-07-24T04:22:19;94061.19;;;20.30;69.22
41690;BME280;27372;42.658;23.256;2023-07-24T04:24:44;94053.56;;;20.42;69.43
41690;BME280;27372;42.658;23.256;2023-07-24T04:27:09;94054.88;;;20.45;69.34
41690;BME280;27372;42.658;23.256;2023-07-24T04:29:35;94054.09;;;20.58;69.26
41690;BME280;27372;42.658;23.256;2023-07-24T04:32:03;94053.34;;;20.72;69.52
41690;BME280;27372;42.658;23.256;2023-07-24T04:34:29;94051.84;;;20.66;69.50
41690;BME280;27372;42.658;23.256;2023-07-24T04:37:03;94044.63;;;20.85;68.85
41690;BME280;27372;42.658;23.256;2023-07-24T04:39:29;94046.13;;;20.72;69.19
41690;BME280;27372;42.658;23.256;2023-07-24T04:41:54;94055.19;;;20.90;68.36
41690;BME280;27372;42.658;23.256;2023-07-24T04:44:19;94053.94;;;21.16;67.75
41690;BME280;27372;42.658;23.256;2023-07-24T04:46:45;94065.91;;;21.32;66.58
41690;BME280;27372;42.658;23.256;2023-07-24T04:49:10;94053.16;;;21.15;66.13
41690;BME280;27372;42.658;23.256;2023-07-24T04:51:39;94069.66;;;21.17;67.16
41690;BME280;27372;42.658;23.256;2023-07-24T04:54:04;94066.13;;;21.36;66.31
41690;BME280;27372;42.658;23.256;2023-07-24T04:56:29;94062.94;;;21.06;68.00
41690;BME280;27372;42.658;23.256;2023-07-24T04:58:55;94060.53;;;21.04;67.52
41690;BME280;27372;42.658;23.256;2023-07-24T05:01:26;94068.56;;;21.32;66.79
41690;BME280;27372;42.658;23.256;2023-07-24T05:03:51;94072.94;;;21.14;67.92
41690;BME280;27372;42.658;23.256;2023-07-24T05:06:16;94070.19;;;21.61;66.19
41690;BME280;27372;42.658;23.256;2023-07-24T05:08:42;94069.94;;;21.57;65.24
41690;BME280;27372;42.658;23.256;2023-07-24T05:11:07;94068.47;;;21.79;63.98
41690;BME280;27372;42.658;23.256;2023-07-24T05:13:33;94060.19;;;22.03;64.03
41690;BME280;27372;42.658;23.256;2023-07-24T05:15:58;94068.19;;;21.81;62.99
41690;BME280;27372;42.658;23.256;2023-07-24T05:18:26;94065.53;;;22.17;62.34
41690;BME280;27372;42.658;23.256;2023-07-24T05:20:51;94058.69;;;22.11;62.99
41690;BME280;27372;42.658;23.256;2023-07-24T05:23:17;94076.03;;;22.37;62.64
41690;BME280;27372;42.658;23.256;2023-07-24T05:25:42;94065.81;;;22.39;62.55
41690;BME280;27372;42.658;23.256;2023-07-24T05:28:08;94064.56;;;22.82;60.93
41690;BME280;27372;42.658;23.256;2023-07-24T05:30:34;94054.09;;;22.26;61.21
41690;BME280;27372;42.658;23.256;2023-07-24T05:33:01;94060.09;;;22.68;60.63
41690;BME280;27372;42.658;23.256;2023-07-24T05:35:27;94056.75;;;22.94;59.30
41690;BME280;27372;42.658;23.256;2023-07-24T05:37:55;94064.41;;;23.09;58.95
41690;BME280;27372;42.658;23.256;2023-07-24T05:40:20;94052.94;;;23.18;58.61
41690;BME280;27372;42.658;23.256;2023-07-24T05:42:47;94049.56;;;23.03;58.25
41690;BME280;27372;42.658;23.256;2023-07-24T05:45:13;94055.97;;;23.25;57.49
41690;BME280;27372;42.658;23.256;2023-07-24T05:47:39;94052.28;;;23.12;58.51
41690;BME280;27372;42.658;23.256;2023-07-24T05:50:08;94051.78;;;23.10;58.80
41690;BME280;27372;42.658;23.256;2023-07-24T05:52:33;94046.91;;;23.44;58.72
41690;BME280;27372;42.658;23.256;2023-07-24T05:55:00;94052.91;;;23.49;58.01
41690;BME280;27372;42.658;23.256;2023-07-24T05:57:25;94053.88;;;23.62;57.15
41690;BME280;27372;42.658;23.256;2023-07-24T05:59:54;94044.78;;;23.81;56.64
41690;BME280;27372;42.658;23.256;2023-07-24T06:02:19;94050.34;;;24.02;58.28
41690;BME280;27372;42.658;23.256;2023-07-24T06:04:45;94033.00;;;23.99;58.71
41690;BME280;27372;42.658;23.256;2023-07-24T06:07:19;94045.44;;;23.95;58.39
41690;BME280;27372;42.658;23.256;2023-07-24T06:09:45;94028.88;;;24.19;58.36
41690;BME280;27372;42.658;23.256;2023-07-24T06:12:19;94031.56;;;24.37;57.83
41690;BME280;27372;42.658;23.256;2023-07-24T06:14:45;94031.22;;;24.56;56.19
41690;BME280;27372;42.658;23.256;2023-07-24T06:17:10;94037.41;;;24.57;56.30
41690;BME280;27372;42.658;23.256;2023-07-24T06:19:36;94039.72;;;24.85;56.23
41690;BME280;27372;42.658;23.256;2023-07-24T06:22:01;94036.97;;;25.02;54.72
41690;BME280;27372;42.658;23.256;2023-07-24T06:24:29;94036.78;;;25.16;54.95
41690;BME280;27372;42.658;23.256;2023-07-24T06:26:55;94034.22;;;25.20;53.46
41690;BME280;27372;42.658;23.256;2023-07-24T06:29:20;94032.13;;;25.34;53.21
41690;BME280;27372;42.658;23.256;2023-07-24T06:31:47;94044.94;;;25.28;53.49
41690;BME280;27372;42.658;23.256;2023-07-24T06:34:21;94041.94;;;25.30;52.34
41690;BME280;27372;42.658;23.256;2023-07-24T06:36:49;94047.03;;;25.23;52.07
41690;BME280;27372;42.658;23.256;2023-07-24T06:39:15;94036.56;;;25.30;50.20
41690;BME280;27372;42.658;23.256;2023-07-24T06:41:41;94042.41;;;25.32;51.33
41690;BME280;27372;42.658;23.256;2023-07-24T06:44:07;94041.53;;;25.58;50.05
41690;BME280;27372;42.658;23.256;2023-07-24T06:46:32;94047.31;;;25.69;50.58
41690;BME280;27372;42.658;23.256;2023-07-24T06:48:57;94048.94;;;25.61;50.19
41690;BME280;27372;42.658;23.256;2023-07-24T06:51:23;94046.41;;;25.86;48.96
41690;BME280;27372;42.658;23.256;2023-07-24T06:53:51;94037.88;;;25.63;50.55
41690;BME280;27372;42.658;23.256;2023-07-24T06:56:17;94034.53;;;26.08;49.68
41690;BME280;27372;42.658;23.256;2023-07-24T06:58:45;94042.63;;;26.08;49.65
41690;BME280;27372;42.658;23.256;2023-07-24T07:01:10;94041.09;;;25.77;50.55
41690;BME280;27372;42.658;23.256;2023-07-24T07:03:36;94036.56;;;25.90;49.88
41690;BME280;27372;42.658;23.256;2023-07-24T07:06:01;94052.69;;;25.90;50.09
41690;BME280;27372;42.658;23.256;2023-07-24T07:08:28;94055.47;;;26.02;49.85
41690;BME280;27372;42.658;23.256;2023-07-24T07:11:00;94051.06;;;25.98;49.41
41690;BME280;27372;42.658;23.256;2023-07-24T07:13:26;94056.41;;;26.07;48.96
41690;BME280;27372;42.658;23.256;2023-07-24T07:15:52;94048.59;;;25.33;51.57
41690;BME280;27372;42.658;23.256;2023-07-24T07:18:17;94039.94;;;25.57;51.55
41690;BME280;27372;42.658;23.256;2023-07-24T07:20:47;94043.25;;;26.05;50.76
41690;BME280;27372;42.658;23.256;2023-07-24T07:23:13;94047.75;;;26.22;50.72
41690;BME280;27372;42.658;23.256;2023-07-24T07:25:41;94029.75;;;26.56;49.95
41690;BME280;27372;42.658;23.256;2023-07-24T07:28:08;94039.97;;;26.63;48.83
41690;BME280;27372;42.658;23.256;2023-07-24T07:30:34;94034.66;;;26.54;48.87
41690;BME280;27372;42.658;23.256;2023-07-24T07:33:04;94033.56;;;26.89;47.89
41690;BME280;27372;42.658;23.256;2023-07-24T07:35:33;94038.41;;;26.95;47.72
41690;BME280;27372;42.658;23.256;2023-07-24T07:37:59;94030.78;;;26.76;49.58
41690;BME280;27372;42.658;23.256;2023-07-24T07:40:25;94033.72;;;26.71;49.41
41690;BME280;27372;42.658;23.256;2023-07-24T07:42:52;94022.72;;;27.10;49.48
41690;BME280;27372;42.658;23.256;2023-07-24T07:45:18;94027.41;;;27.01;49.71
41690;BME280;27372;42.658;23.256;2023-07-24T07:47:43;94029.34;;;27.25;49.12
41690;BME280;27372;42.658;23.256;2023-07-24T07:50:09;94032.38;;;27.36;48.06
41690;BME280;27372;42.658;23.256;2023-07-24T07:52:34;94011.88;;;27.43;47.69
41690;BME280;27372;42.658;23.256;2023-07-24T07:55:00;94018.13;;;27.60;46.99
41690;BME280;27372;42.658;23.256;2023-07-24T07:57:25;94023.50;;;27.85;46.43
41690;BME280;27372;42.658;23.256;2023-07-24T07:59:51;94019.91;;;27.81;46.12
41690;BME280;27372;42.658;23.256;2023-07-24T08:02:17;94026.63;;;27.99;46.51
41690;BME280;27372;42.658;23.256;2023-07-24T08:04:42;94023.59;;;28.42;47.63
41690;BME280;27372;42.658;23.256;2023-07-24T08:07:08;94023.00;;;28.20;47.62
41690;BME280;27372;42.658;23.256;2023-07-24T08:09:33;94026.75;;;28.03;48.05
41690;BME280;27372;42.658;23.256;2023-07-24T08:11:59;94028.56;;;27.74;49.62
41690;BME280;27372;42.658;23.256;2023-07-24T08:14:26;94020.38;;;27.58;49.52
41690;BME280;27372;42.658;23.256;2023-07-24T08:16:52;94013.50;;;27.36;49.27
41690;BME280;27372;42.658;23.256;2023-07-24T08:19:18;94017.88;;;27.40;48.48
41690;BME280;27372;42.658;23.256;2023-07-24T08:21:43;94017.41;;;27.01;50.39
41690;BME280;27372;42.658;23.256;2023-07-24T08:24:09;94019.91;;;27.06;52.24
41690;BME280;27372;42.658;23.256;2023-07-24T08:26:35;94003.19;;;27.01;51.04
41690;BME280;27372;42.658;23.256;2023-07-24T08:29:00;93999.03;;;27.03;50.99
41690;BME280;27372;42.658;23.256;2023-07-24T08:31:26;93993.41;;;27.21;50.32
41690;BME280;27372;42.658;23.256;2023-07-24T08:33:51;93998.56;;;27.13;51.61
41690;BME280;27372;42.658;23.256;2023-07-24T08:36:16;93996.00;;;27.30;49.83
41690;BME280;27372;42.658;23.256;2023-07-24T08:38:42;93994.75;;;27.39;49.96
41690;BME280;27372;42.658;23.256;2023-07-24T08:41:12;93995.44;;;27.49;49.02
41690;BME280;27372;42.658;23.256;2023-07-24T08:43:39;93991.41;;;27.55;49.66
41690;BME280;27372;42.658;23.256;2023-07-24T08:46:08;93988.63;;;27.51;49.25
41690;BME280;27372;42.658;23.256;2023-07-24T08:48:38;93997.78;;;27.75;49.65
41690;BME280;27372;42.658;23.256;2023-07-24T08:51:08;93999.44;;;27.80;49.06
41690;BME280;27372;42.658;23.256;2023-07-24T08:53:39;94000.75;;;27.98;47.92
41690;BME280;27372;42.658;23.256;2023-07-24T08:56:09;93983.22;;;28.17;47.64
41690;BME280;27372;42.658;23.256;2023-07-24T08:58:35;93977.06;;;28.32;46.84
41690;BME280;27372;42.658;23.256;2023-07-24T09:01:02;93986.41;;;28.51;46.74
41690;BME280;27372;42.658;23.256;2023-07-24T09:03:35;93981.84;;;28.67;45.49
41690;BME280;27372;42.658;23.256;2023-07-24T09:06:01;93987.25;;;28.67;45.53
41690;BME280;27372;42.658;23.256;2023-07-24T09:08:33;93978.16;;;28.88;45.97
41690;BME280;27372;42.658;23.256;2023-07-24T09:10:59;93971.88;;;28.84;45.36
41690;BME280;27372;42.658;23.256;2023-07-24T09:13:25;93978.41;;;28.83;43.76
41690;BME280;27372;42.658;23.256;2023-07-24T09:15:51;93973.53;;;29.05;44.73
41690;BME280;27372;42.658;23.256;2023-07-24T09:18:19;93977.44;;;29.23;44.02
41690;BME280;27372;42.658;23.256;2023-07-24T09:20:45;93978.41;;;29.31;42.46
41690;BME280;27372;42.658;23.256;2023-07-24T09:23:12;93979.44;;;29.26;41.17
41690;BME280;27372;42.658;23.256;2023-07-24T09:25:39;93977.34;;;29.52;40.51
41690;BME280;27372;42.658;23.256;2023-07-24T09:28:16;93965.72;;;29.51;40.41
41690;BME280;27372;42.658;23.256;2023-07-24T09:30:52;93968.88;;;29.53;40.87
41690;BME280;27372;42.658;23.256;2023-07-24T09:33:17;93966.75;;;29.63;41.27
41690;BME280;27372;42.658;23.256;2023-07-24T09:35:43;93962.88;;;29.80;40.85
41690;BME280;27372;42.658;23.256;2023-07-24T09:38:10;93954.09;;;30.02;40.04
41690;BME280;27372;42.658;23.256;2023-07-24T09:40:43;93947.59;;;30.27;39.74
41690;BME280;27372;42.658;23.256;2023-07-24T09:43:26;93944.19;;;30.10;38.64
41690;BME280;27372;42.658;23.256;2023-07-24T09:45:53;93938.19;;;30.40;38.63
41690;BME280;27372;42.658;23.256;2023-07-24T09:48:21;93941.72;;;30.64;38.19
41690;BME280;27372;42.658;23.256;2023-07-24T09:50:48;93938.09;;;31.03;37.49
41690;BME280;27372;42.658;23.256;2023-07-24T09:53:20;93930.69;;;30.99;37.26
41690;BME280;27372;42.658;23.256;2023-07-24T09:55:53;93934.63;;;31.02;36.25
41690;BME280;27372;42.658;23.256;2023-07-24T09:58:21;93929.66;;;30.85;36.11
41690;BME280;27372;42.658;23.256;2023-07-24T10:00:51;93939.25;;;30.55;35.66
41690;BME280;27372;42.658;23.256;2023-07-24T10:03:17;93930.59;;;30.49;36.37
41690;BME280;27372;42.658;23.256;2023-07-24T10:05:47;93912.53;;;30.77;34.88
41690;BME280;27372;42.658;23.256;2023-07-24T10:08:14;93921.00;;;30.75;35.10
41690;BME280;27372;42.658;23.256;2023-07-24T10:10:41;93924.03;;;30.70;35.51
41690;BME280;27372;42.658;23.256;2023-07-24T10:13:08;93915.53;;;30.72;35.89
41690;BME280;27372;42.658;23.256;2023-07-24T10:15:37;93916.25;;;30.92;35.62
41690;BME280;27372;42.658;23.256;2023-07-24T10:18:06;93902.78;;;30.72;36.29
41690;BME280;27372;42.658;23.256;2023-07-24T10:20:36;93914.06;;;31.01;36.79
41690;BME280;27372;42.658;23.256;2023-07-24T10:23:02;93907.75;;;31.17;36.27
41690;BME280;27372;42.658;23.256;2023-07-24T10:25:30;93909.38;;;30.98;36.34
41690;BME280;27372;42.658;23.256;2023-07-24T10:28:03;93898.69;;;31.32;35.88
41690;BME280;27372;42.658;23.256;2023-07-24T10:30:35;93916.44;;;31.29;35.29
41690;BME280;27372;42.658;23.256;2023-07-24T10:33:08;93911.00;;;31.03;35.17
41690;BME280;27372;42.658;23.256;2023-07-24T10:36:06;93899.31;;;31.22;36.03
41690;BME280;27372;42.658;23.256;2023-07-24T10:38:38;93892.47;;;31.32;35.87
41690;BME280;27372;42.658;23.256;2023-07-24T10:41:05;93891.06;;;31.14;35.88
41690;BME280;27372;42.658;23.256;2023-07-24T10:43:58;93888.78;;;30.93;35.29
41690;BME280;27372;42.658;23.256;2023-07-24T10:46:39;93881.63;;;30.81;36.78
41690;BME280;27372;42.658;23.256;2023-07-24T10:49:10;93870.69;;;31.24;35.82
41690;BME280;27372;42.658;23.256;2023-07-24T10:51:41;93865.59;;;31.50;36.70
41690;BME280;27372;42.658;23.256;2023-07-24T10:54:06;93860.94;;;31.50;35.72
41690;BME280;27372;42.658;23.256;2023-07-24T10:56:37;93850.19;;;31.57;35.34
41690;BME280;27372;42.658;23.256;2023-07-24T10:59:09;93874.69;;;31.95;34.43
41690;BME280;27372;42.658;23.256;2023-07-24T11:01:55;93859.38;;;31.49;35.61
41690;BME280;27372;42.658;23.256;2023-07-24T11:04:20;93880.44;;;31.90;35.08
41690;BME280;27372;42.658;23.256;2023-07-24T11:06:52;93869.78;;;31.43;34.87
41690;BME280;27372;42.658;23.256;2023-07-24T11:12:28;93867.88;;;32.12;34.16
41690;BME280;27372;42.658;23.256;2023-07-24T11:15:23;93848.19;;;32.19;33.30
41690;BME280;27372;42.658;23.256;2023-07-24T11:21:16;93845.28;;;32.80;33.50
41690;BME280;27372;42.658;23.256;2023-07-24T11:30:05;93835.19;;;33.43;32.58
41690;BME280;27372;42.658;23.256;2023-07-24T11:32:42;93832.09;;;32.82;32.32
41690;BME280;27372;42.658;23.256;2023-07-24T11:35:14;93838.91;;;32.65;32.02
41690;BME280;27372;42.658;23.256;2023-07-24T11:37:40;93845.16;;;32.69;32.69
41690;BME280;27372;42.658;23.256;2023-07-24T11:40:06;93833.75;;;32.52;32.78
41690;BME280;27372;42.658;23.256;2023-07-24T11:42:43;93830.22;;;32.45;35.01
41690;BME280;27372;42.658;23.256;2023-07-24T11:45:09;93819.69;;;32.40;34.16
41690;BME280;27372;42.658;23.256;2023-07-24T11:48:01;93824.94;;;32.66;34.44
41690;BME280;27372;42.658;23.256;2023-07-24T11:50:42;93841.25;;;32.66;32.69
41690;BME280;27372;42.658;23.256;2023-07-24T11:56:20;93810.88;;;32.53;33.51
41690;BME280;27372;42.658;23.256;2023-07-24T11:58:47;93804.06;;;32.78;33.81
41690;BME280;27372;42.658;23.256;2023-07-24T12:04:21;93814.66;;;33.53;31.07
41690;BME280;27372;42.658;23.256;2023-07-24T12:06:59;93814.72;;;33.68;31.50
41690;BME280;27372;42.658;23.256;2023-07-24T12:09:29;93802.91;;;33.35;32.18
41690;BME280;27372;42.658;23.256;2023-07-24T12:12:13;93815.63;;;33.16;31.66
41690;BME280;27372;42.658;23.256;2023-07-24T12:14:50;93823.13;;;32.81;32.77
41690;BME280;27372;42.658;23.256;2023-07-24T12:17:19;93807.09;;;32.65;32.19
41690;BME280;27372;42.658;23.256;2023-07-24T12:30:56;93792.91;;;32.90;32.31
41690;BME280;27372;42.658;23.256;2023-07-24T12:33:53;93790.38;;;32.63;31.78
41690;BME280;27372;42.658;23.256;2023-07-24T12:36:25;93784.41;;;32.43;31.65
41690;BME280;27372;42.658;23.256;2023-07-24T12:38:50;93799.22;;;32.49;32.29
41690;BME280;27372;42.658;23.256;2023-07-24T12:41:30;93798.91;;;32.62;32.09
41690;BME280;27372;42.658;23.256;2023-07-24T12:43:55;93780.50;;;32.93;32.07
41690;BME280;27372;42.658;23.256;2023-07-24T12:46:36;93793.72;;;33.72;30.30
41690;BME280;27372;42.658;23.256;2023-07-24T12:49:13;93784.88;;;34.04;30.60
41690;BME280;27372;42.658;23.256;2023-07-24T12:51:45;93770.91;;;34.27;28.56
41690;BME280;27372;42.658;23.256;2023-07-24T12:54:22;93777.94;;;34.43;29.38
41690;BME280;27372;42.658;23.256;2023-07-24T12:57:05;93779.50;;;34.44;30.33
41690;BME280;27372;42.658;23.256;2023-07-24T12:59:48;93772.06;;;34.08;29.54
41690;BME280;27372;42.658;23.256;2023-07-24T13:02:13;93784.47;;;33.98;29.34
41690;BME280;27372;42.658;23.256;2023-07-24T13:04:39;93770.91;;;34.99;29.98
41690;BME280;27372;42.658;23.256;2023-07-24T13:07:07;93770.63;;;35.75;29.28
41690;BME280;27372;42.658;23.256;2023-07-24T13:09:33;93765.94;;;35.80;27.61
41690;BME280;27372;42.658;23.256;2023-07-24T13:12:19;93750.34;;;36.36;27.90
41690;BME280;27372;42.658;23.256;2023-07-24T13:14:51;93762.63;;;36.14;27.72
41690;BME280;27372;42.658;23.256;2023-07-24T13:17:16;93761.41;;;36.22;25.96
41690;BME280;27372;42.658;23.256;2023-07-24T13:19:42;93749.47;;;35.90;23.79
41690;BME280;27372;42.658;23.256;2023-07-24T13:22:07;93758.78;;;35.11;22.19
41690;BME280;27372;42.658;23.256;2023-07-24T13:24:37;93763.50;;;34.82;21.23
41690;BME280;27372;42.658;23.256;2023-07-24T13:27:03;93758.44;;;34.88;21.74
41690;BME280;27372;42.658;23.256;2023-07-24T13:29:34;93748.31;;;34.81;21.27
41690;BME280;27372;42.658;23.256;2023-07-24T13:32:03;93740.22;;;35.73;21.28
41690;BME280;27372;42.658;23.256;2023-07-24T13:34:29;93742.09;;;35.84;20.90